Time;durP1;ratioP1;P1;durP2;ratioP2;P2;SDS_P1;SDS_P2;PMS_P1;PMS_P2;Temp;Humidity;BMP_temperature;BMP_pressure;BME280_temperature;BME280_humidity;BME280_pressure;Samples;Min_cycle;Max_cycle;Signal;HPM_P1;HPM_P2
2022/12/31 00:01:17;;;;;;;147.20;103.60;;;;;;;0.40;100.00;99033.63;106032;1283;66916;-71
2022/12/31 00:03:45;;;;;;;148.60;105.40;;;;;;;0.38;100.00;99032.11;106051;1289;60894;-70
2022/12/31 00:06:22;;;;;;;162.60;112.00;;;;;;;0.36;100.00;99025.00;106044;1288;64092;-70
2022/12/31 00:08:50;;;;;;;154.30;107.20;;;;;;;0.36;100.00;99016.44;106023;1288;59014;-70
2022/12/31 00:11:18;;;;;;;157.60;110.20;;;;;;;0.34;100.00;99014.04;106039;1288;58882;-72
2022/12/31 00:13:45;;;;;;;149.40;104.60;;;;;;;0.33;100.00;99018.77;106098;1288;66944;-71
2022/12/31 00:16:23;;;;;;;147.50;101.20;;;;;;;0.31;100.00;99016.39;106047;1289;59858;-70
2022/12/31 00:18:52;;;;;;;151.50;100.50;;;;;;;0.28;100.00;99013.14;106049;1295;72916;-70
2022/12/31 00:21:19;;;;;;;140.70;95.70;;;;;;;0.28;100.00;99010.17;106043;1289;58862;-70
2022/12/31 00:23:46;;;;;;;141.40;103.40;;;;;;;0.29;100.00;99009.63;106044;1287;58822;-71
2022/12/31 00:26:18;;;;;;;148.30;105.20;;;;;;;0.29;100.00;99013.13;106061;1289;66124;-71
2022/12/31 00:28:44;;;;;;;141.40;101.90;;;;;;;0.29;100.00;99013.98;106057;1295;61025;-71
2022/12/31 00:31:14;;;;;;;140.40;98.30;;;;;;;0.33;100.00;99020.19;105762;1291;59241;-72
2022/12/31 00:33:41;;;;;;;145.00;103.40;;;;;;;0.38;100.00;99018.82;106045;1299;59086;-71
2022/12/31 00:36:12;;;;;;;149.90;101.90;;;;;;;0.39;100.00;99022.63;105682;1294;59086;-71
2022/12/31 00:38:39;;;;;;;136.80;97.40;;;;;;;0.39;100.00;99021.05;106058;1295;66930;-71
2022/12/31 00:41:06;;;;;;;139.70;99.40;;;;;;;0.41;100.00;99019.25;106059;1288;61125;-70
2022/12/31 00:43:33;;;;;;;140.90;100.40;;;;;;;0.42;100.00;99015.40;106025;1288;63983;-71
2022/12/31 00:46:00;;;;;;;145.70;101.50;;;;;;;0.44;100.00;99012.39;106022;1295;59182;-71
2022/12/31 00:48:26;;;;;;;150.10;101.50;;;;;;;0.46;100.00;99012.00;106052;1288;58915;-71
2022/12/31 00:50:54;;;;;;;151.60;103.40;;;;;;;0.44;100.00;99011.50;106048;1287;66974;-71
2022/12/31 00:53:21;;;;;;;143.80;100.70;;;;;;;0.42;100.00;99014.18;104568;1289;1003009;-70
2022/12/31 00:55:49;;;;;;;140.10;102.70;;;;;;;0.39;100.00;99021.23;105705;1289;63907;-71
2022/12/31 00:58:15;;;;;;;138.10;100.70;;;;;;;0.38;100.00;99019.52;106019;1295;58844;-71
2022/12/31 01:00:41;;;;;;;141.90;100.30;;;;;;;0.40;100.00;99026.99;106055;1288;59172;-72
2022/12/31 01:03:07;;;;;;;151.90;102.80;;;;;;;0.39;100.00;99026.82;106047;1295;58987;-70
2022/12/31 01:05:35;;;;;;;143.40;101.40;;;;;;;0.39;100.00;99023.87;106046;1288;60005;-70
2022/12/31 01:08:02;;;;;;;140.70;100.10;;;;;;;0.40;100.00;99035.20;106055;1287;58974;-70
2022/12/31 01:13:13;;;;;;;136.90;100.70;;;;;;;0.42;100.00;99034.98;106056;1287;59026;-70
2022/12/31 01:15:40;;;;;;;147.50;102.00;;;;;;;0.46;100.00;99036.10;105770;1295;59038;-71
2022/12/31 01:18:07;;;;;;;147.30;104.60;;;;;;;0.50;100.00;99036.36;106068;1288;60736;-70
2022/12/31 01:20:41;;;;;;;145.60;103.10;;;;;;;0.54;100.00;99035.36;106057;1289;64014;-70
2022/12/31 01:23:09;;;;;;;160.50;111.20;;;;;;;0.58;100.00;99036.13;106015;1288;58798;-71
2022/12/31 01:25:37;;;;;;;327.90;151.80;;;;;;;0.60;100.00;99043.78;105692;1295;59865;-70
2022/12/31 01:28:05;;;;;;;232.50;126.90;;;;;;;0.60;100.00;99050.25;105990;1292;65886;-71
2022/12/31 01:30:32;;;;;;;188.50;118.40;;;;;;;0.59;100.00;99057.60;105671;1300;61061;-70
2022/12/31 01:32:58;;;;;;;177.30;121.40;;;;;;;0.60;100.00;99064.40;105986;1289;64951;-70
2022/12/31 01:35:24;;;;;;;170.30;118.40;;;;;;;0.62;100.00;99069.77;106037;1289;59052;-71
2022/12/31 01:37:51;;;;;;;185.30;128.30;;;;;;;0.65;100.00;99070.06;106063;1295;58835;-70
2022/12/31 01:40:17;;;;;;;177.10;124.10;;;;;;;0.68;100.00;99068.75;106039;1289;59070;-71
2022/12/31 01:42:43;;;;;;;165.00;113.80;;;;;;;0.72;100.00;99069.19;105731;1295;59047;-71
2022/12/31 01:45:12;;;;;;;160.60;114.40;;;;;;;0.75;100.00;99067.69;105863;1297;59007;-71
2022/12/31 01:47:43;;;;;;;165.30;118.00;;;;;;;0.79;100.00;99064.45;105755;1297;59134;-71
2022/12/31 01:50:21;;;;;;;161.00;114.00;;;;;;;0.82;100.00;99054.56;106069;1288;58817;-70
2022/12/31 01:52:51;;;;;;;155.80;110.90;;;;;;;0.85;100.00;99049.77;106028;1288;65814;-71
2022/12/31 01:55:30;;;;;;;149.20;107.90;;;;;;;0.86;100.00;99051.67;106018;1288;59926;-70
2022/12/31 01:58:04;;;;;;;151.40;109.10;;;;;;;0.86;100.00;99048.54;106022;1289;64893;-70
2022/12/31 02:00:31;;;;;;;152.10;108.50;;;;;;;0.83;100.00;99053.67;106027;1287;59226;-70
2022/12/31 02:02:57;;;;;;;152.80;110.10;;;;;;;0.79;100.00;99056.22;106047;1289;58885;-70
2022/12/31 02:05:30;;;;;;;154.30;111.00;;;;;;;0.78;100.00;99052.40;105309;1288;1002362;-70
2022/12/31 02:07:58;;;;;;;150.80;110.20;;;;;;;0.78;100.00;99057.13;106026;1288;59892;-71
2022/12/31 02:10:24;;;;;;;147.00;105.70;;;;;;;0.78;100.00;99055.20;106026;1289;64973;-70
2022/12/31 02:12:51;;;;;;;148.80;108.10;;;;;;;0.79;100.00;99053.96;106023;1288;58936;-71
2022/12/31 02:15:29;;;;;;;158.30;114.90;;;;;;;0.79;100.00;99059.89;105775;1291;58958;-70
2022/12/31 02:18:07;;;;;;;150.30;108.50;;;;;;;0.80;100.00;99061.11;106062;1295;66813;-70
2022/12/31 02:20:58;;;;;;;159.20;114.80;;;;;;;0.80;100.00;99065.13;106014;1288;58943;-71
2022/12/31 02:23:33;;;;;;;160.60;114.60;;;;;;;0.80;100.00;99076.34;106063;1289;64877;-71
2022/12/31 02:26:29;;;;;;;169.10;120.80;;;;;;;0.78;100.00;99080.73;106041;1290;58910;-72
2022/12/31 02:29:03;;;;;;;160.80;117.60;;;;;;;0.75;100.00;99078.38;105902;1292;58819;-70
2022/12/31 02:31:35;;;;;;;166.30;119.40;;;;;;;0.72;100.00;99069.34;106046;1282;65925;-71
2022/12/31 02:34:06;;;;;;;169.30;120.70;;;;;;;0.72;100.00;99057.80;106046;1289;61056;-71
2022/12/31 02:36:39;;;;;;;177.20;125.50;;;;;;;0.73;100.00;99050.42;106059;1289;63891;-71
2022/12/31 02:39:08;;;;;;;175.80;127.60;;;;;;;0.75;100.00;99052.31;106037;1289;58841;-71
2022/12/31 02:41:49;;;;;;;166.70;121.00;;;;;;;0.77;100.00;99061.88;105920;1298;58908;-71
2022/12/31 02:44:23;;;;;;;167.80;123.80;;;;;;;0.77;100.00;99063.27;106057;1295;66935;-71
2022/12/31 02:47:07;;;;;;;161.20;119.70;;;;;;;0.77;100.00;99059.95;106012;1291;60860;-71
2022/12/31 02:50:09;;;;;;;171.00;125.20;;;;;;;0.78;100.00;99049.96;106040;1289;64206;-71
2022/12/31 02:52:56;;;;;;;164.00;120.20;;;;;;;0.78;100.00;99050.65;106032;1288;58914;-70
2022/12/31 02:55:35;;;;;;;153.90;118.50;;;;;;;0.77;100.00;99043.70;106011;1289;58924;-70
2022/12/31 03:02:12;;;;;;;156.80;118.50;;;;;;;0.76;100.00;99037.95;106061;1281;65840;-71
2022/12/31 03:04:30;;;;;;;169.40;122.90;;;;;;;0.67;100.00;99018.26;106029;1289;63983;-72
2022/12/31 03:06:41;;;;;;;152.90;116.50;;;;;;;0.64;100.00;99012.57;106044;1281;58930;-71
2022/12/31 03:09:12;;;;;;;165.60;119.90;;;;;;;0.62;100.00;99014.88;105703;1299;59097;-70
2022/12/31 03:14:24;;;;;;;153.10;111.40;;;;;;;0.60;100.00;99002.72;106050;1288;61098;-71
2022/12/31 03:16:50;;;;;;;153.80;112.90;;;;;;;0.55;100.00;99001.10;106048;1288;58936;-71
2022/12/31 03:27:31;;;;;;;144.10;108.40;;;;;;;0.42;100.00;99017.50;106060;1288;60849;-71
2022/12/31 03:29:57;;;;;;;144.30;110.60;;;;;;;0.41;100.00;99023.29;106015;1285;59173;-70
2022/12/31 03:32:23;;;;;;;167.30;124.70;;;;;;;0.42;100.00;99031.12;106066;1282;58784;-70
2022/12/31 03:34:49;;;;;;;171.50;132.50;;;;;;;0.47;100.00;99038.17;106072;1287;58892;-71
2022/12/31 03:37:15;;;;;;;177.00;132.30;;;;;;;0.50;100.00;99040.36;106032;1283;58932;-71
2022/12/31 03:39:41;;;;;;;195.00;142.60;;;;;;;0.56;100.00;99046.16;106057;1288;58926;-70
2022/12/31 03:42:07;;;;;;;182.80;140.10;;;;;;;0.61;100.00;99047.09;106047;1297;58850;-70
2022/12/31 03:44:33;;;;;;;194.70;146.60;;;;;;;0.66;100.00;99044.85;106031;1289;58958;-70
2022/12/31 03:46:59;;;;;;;187.90;140.40;;;;;;;0.69;100.00;99054.21;106032;1281;59168;-71
2022/12/31 03:49:26;;;;;;;206.50;150.00;;;;;;;0.74;100.00;99058.12;106053;1288;59203;-71
2022/12/31 03:51:52;;;;;;;194.40;146.90;;;;;;;0.76;100.00;99063.14;106079;1287;58919;-71
2022/12/31 03:54:18;;;;;;;198.10;148.90;;;;;;;0.77;100.00;99066.09;106038;1283;59003;-70
2022/12/31 03:56:44;;;;;;;186.50;141.40;;;;;;;0.79;100.00;99066.90;105698;1294;58991;-70
2022/12/31 03:59:10;;;;;;;180.70;134.30;;;;;;;0.83;100.00;99069.23;106052;1277;59270;-70
2022/12/31 04:01:36;;;;;;;172.10;131.50;;;;;;;0.86;100.00;99067.92;105768;1288;59050;-71
2022/12/31 04:04:02;;;;;;;174.60;131.70;;;;;;;0.91;100.00;99064.50;106018;1288;59115;-71
2022/12/31 04:06:28;;;;;;;175.00;133.60;;;;;;;0.94;100.00;99066.86;106023;1282;58895;-71
2022/12/31 04:08:54;;;;;;;175.50;134.30;;;;;;;0.95;100.00;99075.02;106055;1289;58806;-72
2022/12/31 04:11:21;;;;;;;182.40;137.00;;;;;;;0.96;100.00;99088.66;106059;1288;59142;-69
2022/12/31 04:13:47;;;;;;;176.30;132.40;;;;;;;0.97;100.00;99092.66;105863;1296;59463;-71
2022/12/31 04:16:13;;;;;;;174.30;137.10;;;;;;;1.01;100.00;99092.56;106031;1282;59253;-70
2022/12/31 04:18:39;;;;;;;178.50;134.60;;;;;;;1.07;100.00;99085.39;105796;1281;58868;-71
2022/12/31 04:21:05;;;;;;;176.40;131.60;;;;;;;1.12;100.00;99081.75;106049;1288;66089;-70
2022/12/31 04:23:31;;;;;;;166.40;127.90;;;;;;;1.15;100.00;99077.11;106070;1287;58783;-70
2022/12/31 04:25:58;;;;;;;165.20;122.90;;;;;;;1.17;100.00;99076.54;106020;1289;58977;-71
2022/12/31 04:28:24;;;;;;;160.20;123.90;;;;;;;1.18;100.00;99072.84;106036;1289;58937;-71
2022/12/31 04:30:50;;;;;;;169.50;129.60;;;;;;;1.19;100.00;99066.52;106036;1287;58862;-70
2022/12/31 04:33:16;;;;;;;165.00;127.40;;;;;;;1.20;100.00;99062.45;106068;1292;58910;-70
2022/12/31 04:35:42;;;;;;;154.50;123.30;;;;;;;1.21;100.00;99065.25;106059;1287;58984;-71
2022/12/31 04:38:08;;;;;;;154.50;119.50;;;;;;;1.22;100.00;99060.98;106030;1285;58973;-70
2022/12/31 04:41:15;;;;;;;154.40;114.80;;;;;;;1.25;100.00;99060.92;106036;1288;58883;-71
2022/12/31 04:43:21;;;;;;;155.90;120.00;;;;;;;1.30;100.00;99069.88;105989;1292;58861;-71
2022/12/31 04:45:47;;;;;;;144.20;110.40;;;;;;;1.33;100.00;99073.11;106055;1282;59924;-71
2022/12/31 04:48:13;;;;;;;135.70;103.50;;;;;;;1.39;100.00;99076.27;106048;1273;58961;-72
2022/12/31 04:50:39;;;;;;;119.70;92.70;;;;;;;1.49;100.00;99077.73;106010;1289;59050;-71
2022/12/31 04:53:05;;;;;;;87.60;67.30;;;;;;;1.67;100.00;99081.77;106032;1288;58979;-70
2022/12/31 04:55:31;;;;;;;56.70;43.50;;;;;;;1.94;100.00;99083.09;105795;1294;59283;-71
2022/12/31 04:57:57;;;;;;;33.40;27.40;;;;;;;2.31;100.00;99071.03;106069;1289;58958;-70
2022/12/31 05:00:23;;;;;;;21.10;16.30;;;;;;;2.72;100.00;99060.39;106034;1289;58961;-70
2022/12/31 05:02:49;;;;;;;17.00;14.90;;;;;;;3.15;100.00;99058.73;106041;1288;58902;-71
2022/12/31 05:05:15;;;;;;;16.90;13.20;;;;;;;3.53;100.00;99059.11;106034;1288;58965;-71
2022/12/31 05:07:42;;;;;;;14.50;11.70;;;;;;;3.83;100.00;99057.06;106066;1289;58959;-71
2022/12/31 05:10:08;;;;;;;13.50;10.50;;;;;;;4.12;100.00;99065.06;105816;1288;61127;-71
2022/12/31 05:12:34;;;;;;;13.30;10.50;;;;;;;4.38;100.00;99072.67;106042;1288;58958;-71
2022/12/31 05:15:01;;;;;;;13.20;10.50;;;;;;;4.63;100.00;99073.25;106029;1288;59031;-71
2022/12/31 05:17:26;;;;;;;11.10;9.70;;;;;;;4.85;100.00;99077.58;106025;1287;58896;-71
2022/12/31 05:19:53;;;;;;;12.00;9.30;;;;;;;5.04;100.00;99078.02;106040;1288;59186;-71
2022/12/31 05:22:28;;;;;;;12.00;9.20;;;;;;;5.21;100.00;99081.51;106047;1278;59213;-72
2022/12/31 05:24:54;;;;;;;11.30;8.70;;;;;;;5.40;100.00;99085.95;106028;1281;64194;-72
2022/12/31 05:27:21;;;;;;;10.50;9.00;;;;;;;5.54;100.00;99086.73;106031;1297;58878;-71
2022/12/31 05:29:47;;;;;;;11.80;10.30;;;;;;;5.65;100.00;99085.35;106072;1289;58989;-71
2022/12/31 05:32:13;;;;;;;12.00;10.50;;;;;;;5.76;100.00;99081.86;106042;1281;58838;-71
2022/12/31 05:34:39;;;;;;;12.50;11.00;;;;;;;5.87;100.00;99083.14;106060;1284;59352;-71
2022/12/31 05:37:05;;;;;;;11.40;10.10;;;;;;;5.94;100.00;99082.64;106036;1288;58862;-71
2022/12/31 05:39:31;;;;;;;10.50;9.00;;;;;;;5.98;100.00;99075.41;106060;1288;59180;-71
2022/12/31 05:41:57;;;;;;;12.80;9.70;;;;;;;6.01;100.00;99072.82;105948;1281;151389;-71
2022/12/31 05:44:23;;;;;;;10.20;9.20;;;;;;;6.02;100.00;99067.14;106054;1282;58955;-71
2022/12/31 05:46:50;;;;;;;11.20;10.00;;;;;;;6.01;100.00;99066.81;106072;1289;59372;-70
2022/12/31 05:49:16;;;;;;;9.60;8.20;;;;;;;6.01;100.00;99074.39;105673;1282;59288;-71
2022/12/31 05:51:42;;;;;;;11.20;9.40;;;;;;;6.05;100.00;99074.91;106084;1287;58757;-72
2022/12/31 05:54:08;;;;;;;13.50;9.60;;;;;;;6.09;100.00;99077.38;106047;1288;66009;-71
2022/12/31 05:56:34;;;;;;;18.50;12.70;;;;;;;6.13;100.00;99079.45;106030;1288;58895;-71
2022/12/31 05:59:00;;;;;;;17.00;11.70;;;;;;;6.20;100.00;99078.59;106056;1282;58976;-70
2022/12/31 06:01:26;;;;;;;16.50;12.00;;;;;;;6.26;100.00;99079.74;105752;1295;58952;-70
2022/12/31 06:03:53;;;;;;;19.00;14.90;;;;;;;6.26;100.00;99075.13;106037;1288;58913;-71
2022/12/31 06:06:19;;;;;;;20.20;14.90;;;;;;;6.25;100.00;99076.77;106045;1288;59117;-71
2022/12/31 06:08:50;;;;;;;18.60;13.00;;;;;;;6.25;100.00;99079.63;106073;1288;58972;-72
2022/12/31 06:11:17;;;;;;;16.60;13.10;;;;;;;6.24;100.00;99081.60;106033;1288;64895;-70
2022/12/31 06:13:43;;;;;;;15.80;12.20;;;;;;;6.22;100.00;99082.92;106021;1288;59152;-70
2022/12/31 06:16:10;;;;;;;15.30;11.90;;;;;;;6.24;100.00;99084.44;106061;1285;58914;-71
2022/12/31 06:18:36;;;;;;;13.10;11.30;;;;;;;6.25;100.00;99079.08;106022;1288;58919;-71
2022/12/31 06:21:03;;;;;;;13.60;11.50;;;;;;;6.25;100.00;99079.06;106040;1287;58961;-70
2022/12/31 06:23:29;;;;;;;11.40;10.20;;;;;;;6.27;100.00;99083.42;105508;1289;72447;-70
2022/12/31 06:25:55;;;;;;;13.00;10.50;;;;;;;6.28;100.00;99091.80;106005;1288;59134;-71
2022/12/31 06:28:21;;;;;;;11.90;10.10;;;;;;;6.31;100.00;99090.60;106045;1281;59263;-71
2022/12/31 06:30:48;;;;;;;11.50;9.90;;;;;;;6.33;100.00;99089.61;106040;1288;58961;-71
2022/12/31 06:33:14;;;;;;;13.60;10.20;;;;;;;6.37;100.00;99091.88;105809;1292;58931;-70
2022/12/31 06:35:40;;;;;;;13.00;10.70;;;;;;;6.41;100.00;99094.91;106046;1288;58898;-71
2022/12/31 06:38:06;;;;;;;13.70;10.80;;;;;;;6.45;100.00;99096.63;106036;1288;59106;-71
2022/12/31 06:40:36;;;;;;;12.50;8.80;;;;;;;6.49;100.00;99096.79;106073;1282;59130;-71
2022/12/31 06:43:02;;;;;;;10.10;8.20;;;;;;;6.56;100.00;99093.27;105702;1288;65821;-71
2022/12/31 06:45:28;;;;;;;9.00;7.50;;;;;;;6.64;100.00;99093.05;106047;1288;58898;-71
2022/12/31 06:47:54;;;;;;;8.00;7.00;;;;;;;6.71;100.00;99095.71;106049;1289;58883;-71
2022/12/31 06:50:20;;;;;;;7.50;6.50;;;;;;;6.76;100.00;99095.48;106010;1288;58952;-71
2022/12/31 06:52:46;;;;;;;10.00;6.80;;;;;;;6.73;100.00;99095.06;106043;1281;58960;-71
2022/12/31 06:55:13;;;;;;;7.70;7.00;;;;;;;6.69;100.00;99103.25;106042;1281;59126;-70
2022/12/31 06:57:39;;;;;;;6.90;6.20;;;;;;;6.65;100.00;99102.39;106056;1288;58954;-70
2022/12/31 07:00:09;;;;;;;8.50;6.60;;;;;;;6.58;100.00;99105.16;106018;1288;58923;-70
2022/12/31 07:03:00;;;;;;;10.50;9.50;;;;;;;6.51;100.00;99108.33;105828;1297;58986;-70
2022/12/31 07:05:41;;;;;;;15.70;12.50;;;;;;;6.44;100.00;99109.90;106049;1289;58799;-71
2022/12/31 07:08:33;;;;;;;16.10;13.30;;;;;;;6.39;100.00;99117.21;106052;1288;66769;-70
2022/12/31 07:11:03;;;;;;;17.60;14.10;;;;;;;6.38;100.00;99115.52;105531;1293;59125;-70
2022/12/31 07:13:53;;;;;;;19.50;15.00;;;;;;;6.44;100.00;99119.45;105533;1296;65097;-71
2022/12/31 07:16:19;;;;;;;;;;;;;;;6.53;100.00;99118.30;105280;1301;59172;-71
2022/12/31 07:19:02;;;;;;;18.40;12.90;;;;;;;6.59;100.00;99126.86;105523;1291;59149;-71
2022/12/31 07:21:36;;;;;;;14.20;12.60;;;;;;;6.66;100.00;99126.17;105522;1295;66038;-70
2022/12/31 07:24:08;;;;;;;13.80;12.20;;;;;;;6.74;100.00;99122.40;105515;1290;60733;-70
2022/12/31 07:26:41;;;;;;;13.60;12.00;;;;;;;6.81;100.00;99122.40;105069;1298;65108;-71
2022/12/31 07:29:19;;;;;;;10.10;8.00;;;;;;;6.89;100.00;99126.27;105505;1297;59692;-71
2022/12/31 07:32:07;;;;;;;9.50;8.60;;;;;;;6.96;100.00;99125.90;105435;1297;59156;-71
2022/12/31 07:34:39;;;;;;;9.00;7.80;;;;;;;7.03;100.00;99134.05;105495;1290;65892;-71
2022/12/31 07:37:19;;;;;;;10.00;7.00;;;;;;;7.11;100.00;99140.89;105501;1288;60010;-70
2022/12/31 07:40:15;;;;;;;8.50;6.40;;;;;;;7.19;100.00;99143.31;105458;1298;64814;-70
2022/12/31 07:43:06;;;;;;;7.30;5.80;;;;;;;7.31;100.00;99149.59;105499;1290;59030;-71
2022/12/31 07:45:46;;;;;;;7.00;5.90;;;;;;;7.42;100.00;99149.73;105372;1306;59134;-71
2022/12/31 07:48:25;;;;;;;11.60;8.40;;;;;;;7.53;100.00;99147.40;105737;1288;65867;-71
2022/12/31 07:50:55;;;;;;;8.60;6.90;;;;;;;7.61;100.00;99140.09;106057;1288;60985;-70
2022/12/31 07:53:23;;;;;;;8.50;6.30;;;;;;;7.67;100.00;99137.98;105690;1294;63988;-69
2022/12/31 07:55:56;;;;;;;8.60;6.40;;;;;;;7.72;100.00;99136.88;106055;1288;58924;-71
2022/12/31 07:58:36;;;;;;;7.70;6.70;;;;;;;7.75;100.00;99139.36;106058;1288;58946;-70
2022/12/31 08:01:03;;;;;;;7.50;6.60;;;;;;;7.79;100.00;99152.74;106060;1287;66166;-71
2022/12/31 08:03:39;;;;;;;7.70;6.90;;;;;;;7.84;100.00;99157.27;106043;1288;60902;-70
2022/12/31 08:06:23;;;;;;;10.70;7.50;;;;;;;7.89;100.00;99151.88;106042;1280;63475;-72
2022/12/31 08:08:57;;;;;;;9.20;7.00;;;;;;;7.92;100.00;99145.00;106044;1281;58932;-70
2022/12/31 08:11:39;;;;;;;7.50;6.60;;;;;;;7.97;100.00;99140.64;106045;1288;59140;-71
2022/12/31 08:14:09;;;;;;;8.90;6.50;;;;;;;8.02;100.00;99134.56;106047;1288;66971;-70
2022/12/31 08:16:35;;;;;;;8.30;6.50;;;;;;;8.10;100.00;99138.89;106068;1288;60829;-70
2022/12/31 08:19:02;;;;;;;9.10;7.40;;;;;;;8.19;100.00;99149.90;106030;1274;59148;-70
2022/12/31 08:21:54;;;;;;;8.20;7.20;;;;;;;8.28;100.00;99159.85;105685;1294;59235;-71
2022/12/31 08:24:29;;;;;;;9.10;6.60;;;;;;;8.39;100.00;99167.08;106025;1288;59158;-71
2022/12/31 08:27:22;;;;;;;7.70;6.10;;;;;;;8.49;100.00;99158.02;106043;1288;66028;-71
2022/12/31 08:30:01;;;;;;;8.00;6.90;;;;;;;8.60;100.00;99167.85;106083;1288;61056;-71
2022/12/31 08:33:04;;;;;;;8.90;6.60;;;;;;;8.72;100.00;99172.63;106041;1281;64032;-70
2022/12/31 08:35:49;;;;;;;11.60;7.80;;;;;;;8.85;100.00;99169.29;106031;1289;59003;-72
2022/12/31 08:38:24;;;;;;;10.50;7.40;;;;;;;8.96;100.00;99167.39;106050;1288;58760;-71
2022/12/31 08:41:14;;;;;;;12.70;7.70;;;;;;;9.10;100.00;99160.21;106058;1297;66282;-72
2022/12/31 08:44:00;;;;;;;13.90;7.50;;;;;;;9.29;100.00;99158.39;106048;1281;60718;-71
2022/12/31 08:46:33;;;;;;;8.00;6.30;;;;;;;9.51;100.00;99144.30;106050;1288;65168;-72
2022/12/31 08:48:59;;;;;;;9.00;6.60;;;;;;;9.68;100.00;99135.80;106065;1283;59125;-72
2022/12/31 08:51:27;;;;;;;9.30;6.10;;;;;;;9.84;100.00;99133.27;106057;1288;58984;-71
2022/12/31 08:53:54;;;;;;;7.40;6.10;;;;;;;9.97;100.00;99154.64;105840;1289;67242;-71
2022/12/31 08:56:23;;;;;;;9.00;6.40;;;;;;;10.07;100.00;99165.86;106055;1288;59811;-70
2022/12/31 08:59:21;;;;;;;8.00;5.30;;;;;;;10.17;100.00;99171.66;106036;1288;64843;-71
2022/12/31 09:02:17;;;;;;;7.00;5.00;;;;;;;10.27;100.00;99176.77;106068;1296;58874;-71
2022/12/31 09:05:10;;;;;;;6.90;4.50;;;;;;;10.33;100.00;99174.58;106026;1288;58868;-71
2022/12/31 09:07:39;;;;;;;6.20;4.70;;;;;;;10.40;100.00;99180.73;105522;1297;67167;-70
2022/12/31 09:10:28;;;;;;;5.90;4.90;;;;;;;10.47;100.00;99176.92;105429;1295;60135;-71
2022/12/31 09:13:15;;;;;;;5.90;4.30;;;;;;;10.53;100.00;99165.17;105495;1290;64965;-70
2022/12/31 09:15:56;;;;;;;4.90;3.90;;;;;;;10.56;100.00;99165.14;105491;1297;59089;-72
2022/12/31 09:18:23;;;;;;;6.60;4.50;;;;;;;10.61;100.00;99165.23;105512;1290;59048;-70
2022/12/31 09:20:49;;;;;;;6.00;5.00;;;;;;;10.66;100.00;99160.08;105500;1290;66069;-71
2022/12/31 09:23:16;;;;;;;7.90;5.30;;;;;;;10.72;100.00;99160.89;105518;1294;58985;-70
2022/12/31 09:26:07;;;;;;;5.80;4.30;;;;;;;10.77;100.00;99161.14;105503;1296;63872;-71
2022/12/31 09:29:10;;;;;;;10.30;5.60;;;;;;;10.81;100.00;99158.20;105518;1297;59416;-73
2022/12/31 09:31:50;;;;;;;7.90;5.70;;;;;;;10.88;100.00;99155.78;105540;1298;59110;-71
2022/12/31 09:34:36;;;;;;;9.40;7.10;;;;;;;10.97;100.00;99155.92;105525;1294;66876;-71
2022/12/31 09:37:09;;;;;;;10.00;7.60;;;;;;;11.06;100.00;99150.16;105242;1297;59354;-71
2022/12/31 09:39:44;;;;;;;11.70;8.00;;;;;;;11.15;100.00;99140.45;105482;1293;64918;-70
2022/12/31 09:42:25;;;;;;;13.90;11.50;;;;;;;11.25;100.00;99141.45;105499;1295;59005;-71
2022/12/31 09:45:26;;;;;;;7.60;6.80;;;;;;;11.32;100.00;99137.73;105701;1288;58926;-72
2022/12/31 09:48:23;;;;;;;8.90;7.20;;;;;;;11.42;100.00;99130.11;106041;1288;75775;-70
2022/12/31 09:51:08;;;;;;;6.80;5.60;;;;;;;11.55;100.00;99133.52;106055;1282;59748;-71
2022/12/31 09:53:45;;;;;;;7.30;4.50;;;;;;;11.68;100.00;99131.36;106021;1282;63983;-71
2022/12/31 09:56:22;;;;;;;13.00;11.10;;;;;;;11.83;100.00;99139.58;105850;1291;58844;-71
2022/12/31 09:58:59;;;;;;;10.10;8.70;;;;;;;11.98;100.00;99144.42;106004;1289;59071;-71
2022/12/31 10:01:34;;;;;;;12.30;8.60;;;;;;;12.11;100.00;99147.48;106037;1288;67006;-71
2022/12/31 10:04:21;;;;;;;15.20;11.50;;;;;;;12.20;100.00;99149.30;106050;1288;60891;-71
2022/12/31 10:07:09;;;;;;;30.20;23.40;;;;;;;12.31;100.00;99146.05;106053;1288;64865;-71
2022/12/31 10:09:47;;;;;;;9.80;7.90;;;;;;;12.37;100.00;99146.48;106024;1288;58912;-71
2022/12/31 10:12:28;;;;;;;19.20;14.90;;;;;;;12.39;100.00;99141.50;105965;1290;59122;-71
2022/12/31 10:15:03;;;;;;;9.70;6.40;;;;;;;12.41;100.00;99137.69;106056;1281;67092;-70
2022/12/31 10:17:50;;;;;;;11.90;8.40;;;;;;;12.39;100.00;99128.70;106062;1282;60067;-71
2022/12/31 10:20:28;;;;;;;8.90;6.20;;;;;;;12.35;100.00;99125.59;106049;1285;62766;-71
2022/12/31 10:23:24;;;;;;;5.60;4.90;;;;;;;12.32;100.00;99127.96;106056;1287;59032;-71
2022/12/31 10:25:53;;;;;;;5.30;4.30;;;;;;;12.29;100.00;99130.34;105737;1294;58884;-72
2022/12/31 10:28:25;;;;;;;5.70;4.60;;;;;;;12.28;100.00;99131.10;106062;1288;66031;-70
2022/12/31 10:31:29;;;;;;;6.10;4.90;;;;;;;12.31;100.00;99126.05;106055;1289;60851;-71
2022/12/31 10:34:20;;;;;;;5.50;3.70;;;;;;;12.43;100.00;99120.22;106021;1289;64107;-70
2022/12/31 10:37:17;;;;;;;4.10;3.40;;;;;;;12.54;100.00;99115.69;106032;1289;58963;-71
2022/12/31 10:39:54;;;;;;;4.50;3.20;;;;;;;12.62;100.00;99110.30;105357;1300;58975;-71
2022/12/31 10:42:28;;;;;;;4.90;3.50;;;;;;;12.68;100.00;99105.17;105516;1297;66895;-70
2022/12/31 10:45:31;;;;;;;3.70;3.10;;;;;;;12.72;100.00;99115.92;105511;1290;60898;-71
2022/12/31 10:48:36;;;;;;;6.30;4.40;;;;;;;12.76;100.00;99127.46;105505;1301;64889;-71
2022/12/31 10:51:08;;;;;;;3.80;3.10;;;;;;;12.76;100.00;99133.50;105505;1296;58942;-70
2022/12/31 10:53:48;;;;;;;3.70;2.60;;;;;;;12.76;100.00;99139.17;105502;1297;58890;-71
2022/12/31 10:56:38;;;;;;;3.80;2.10;;;;;;;12.78;100.00;99144.63;105528;1303;67161;-71
2022/12/31 11:00:01;;;;;;;3.30;3.00;;;;;;;12.79;100.00;99143.06;105514;1290;59945;-70
2022/12/31 11:02:38;;;;;;;2.80;2.40;;;;;;;12.83;100.00;99138.20;104866;1303;64897;-71
2022/12/31 11:05:26;;;;;;;3.30;3.00;;;;;;;12.85;100.00;99133.02;104935;1303;59086;-70
2022/12/31 11:08:29;;;;;;;5.10;3.70;;;;;;;12.88;100.00;99137.10;104960;1303;58871;-71
2022/12/31 11:11:16;;;;;;;5.40;4.10;;;;;;;12.91;100.00;99140.44;104800;1303;66913;-71
2022/12/31 11:14:02;;;;;;;6.20;4.10;;;;;;;12.93;100.00;99134.73;105005;1302;61022;-71
2022/12/31 11:16:50;;;;;;;4.50;3.30;;;;;;;12.94;100.00;99121.42;105088;1297;65121;-71
2022/12/31 11:19:40;;;;;;;3.80;3.10;;;;;;;12.99;100.00;99114.14;105423;1298;59072;-71
2022/12/31 11:22:23;;;;;;;4.30;3.90;;;;;;;13.05;100.00;99112.04;105437;1290;59036;-71
2022/12/31 11:24:59;;;;;;;3.90;3.10;;;;;;;13.13;100.00;99114.14;105440;1298;66879;-71
2022/12/31 11:27:52;;;;;;;4.40;3.30;;;;;;;13.20;100.00;99112.77;105260;1299;61071;-71
2022/12/31 11:30:24;;;;;;;4.00;2.80;;;;;;;13.28;100.00;99117.13;105425;1297;65204;-70
2022/12/31 11:33:23;;;;;;;4.00;2.40;;;;;;;13.40;100.00;99117.67;105425;1297;59012;-70
2022/12/31 11:36:16;;;;;;;3.70;2.60;;;;;;;13.51;100.00;99123.04;105546;1289;59011;-70
2022/12/31 11:38:51;;;;;;;3.30;2.80;;;;;;;13.58;100.00;99130.04;105793;1291;66937;-70
2022/12/31 11:41:48;;;;;;;3.90;3.20;;;;;;;13.59;100.00;99140.08;106052;1280;59719;-71
2022/12/31 11:44:34;;;;;;;3.40;2.80;;;;;;;13.57;100.00;99129.70;106055;1286;64906;-71
2022/12/31 11:47:35;;;;;;;3.80;2.80;;;;;;;13.54;100.00;99132.30;106032;1288;59034;-70
2022/12/31 11:50:19;;;;;;;;;;;;;;;13.49;100.00;99131.98;106027;1288;58951;-71
2022/12/31 11:53:23;;;;;;;3.40;3.10;;;;;;;13.43;100.00;99124.00;106026;1292;66059;-71
2022/12/31 11:55:59;;;;;;;4.20;2.80;;;;;;;13.40;100.00;99121.73;105874;1292;61129;-73